sensor_id;sensor_type;location;lat;lon;timestamp;temperature;humidity
61912;DHT22;49973;52.084;5.412;2023-09-19T00:00:44;14.60;99.90
61912;DHT22;49973;52.084;5.412;2023-09-19T00:03:15;14.70;99.90
61912;DHT22;49973;52.084;5.412;2023-09-19T00:05:44;14.50;99.90
61912;DHT22;49973;52.084;5.412;2023-09-19T00:08:13;14.50;99.90
61912;DHT22;49973;52.084;5.412;2023-09-19T00:10:44;14.60;99.90
61912;DHT22;49973;52.084;5.412;2023-09-19T00:13:13;14.50;99.90
61912;DHT22;49973;52.084;5.412;2023-09-19T00:15:45;14.50;99.90
61912;DHT22;49973;52.084;5.412;2023-09-19T00:18:18;14.50;99.90
61912;DHT22;49973;52.084;5.412;2023-09-19T00:20:48;14.60;99.90
61912;DHT22;49973;52.084;5.412;2023-09-19T00:23:17;14.50;99.90
61912;DHT22;49973;52.084;5.412;2023-09-19T00:25:49;14.70;99.90
61912;DHT22;49973;52.084;5.412;2023-09-19T00:28:18;14.50;99.90
61912;DHT22;49973;52.084;5.412;2023-09-19T00:30:48;14.50;99.90
61912;DHT22;49973;52.084;5.412;2023-09-19T00:33:18;14.50;99.90
61912;DHT22;49973;52.084;5.412;2023-09-19T00:35:48;14.50;99.90
61912;DHT22;49973;52.084;5.412;2023-09-19T00:38:17;14.50;99.90
61912;DHT22;49973;52.084;5.412;2023-09-19T00:40:50;14.40;99.90
61912;DHT22;49973;52.084;5.412;2023-09-19T00:43:19;14.60;99.90
61912;DHT22;49973;52.084;5.412;2023-09-19T00:45:51;14.50;99.90
61912;DHT22;49973;52.084;5.412;2023-09-19T00:48:21;14.50;99.90
61912;DHT22;49973;52.084;5.412;2023-09-19T00:50:51;14.50;99.90
61912;DHT22;49973;52.084;5.412;2023-09-19T00:53:23;14.50;99.90
61912;DHT22;49973;52.084;5.412;2023-09-19T00:55:55;14.70;99.90
61912;DHT22;49973;52.084;5.412;2023-09-19T00:58:24;14.50;99.90
61912;DHT22;49973;52.084;5.412;2023-09-19T01:01:01;14.60;99.90
61912;DHT22;49973;52.084;5.412;2023-09-19T01:03:30;14.60;99.90
61912;DHT22;49973;52.084;5.412;2023-09-19T01:05:59;14.70;99.90
61912;DHT22;49973;52.084;5.412;2023-09-19T01:08:29;14.70;99.90
61912;DHT22;49973;52.084;5.412;2023-09-19T01:11:08;14.70;99.90
61912;DHT22;49973;52.084;5.412;2023-09-19T01:13:47;14.70;99.90
61912;DHT22;49973;52.084;5.412;2023-09-19T01:16:22;14.80;99.90
61912;DHT22;49973;52.084;5.412;2023-09-19T01:19:06;14.70;99.90
61912;DHT22;49973;52.084;5.412;2023-09-19T01:21:44;14.80;99.90
61912;DHT22;49973;52.084;5.412;2023-09-19T01:28:03;14.80;99.90
61912;DHT22;49973;52.084;5.412;2023-09-19T01:30:39;14.80;99.90
61912;DHT22;49973;52.084;5.412;2023-09-19T01:33:11;14.80;99.90
61912;DHT22;49973;52.084;5.412;2023-09-19T01:35:39;14.90;99.90
61912;DHT22;49973;52.084;5.412;2023-09-19T01:38:10;14.90;99.90
61912;DHT22;49973;52.084;5.412;2023-09-19T01:40:41;15.00;99.90
61912;DHT22;49973;52.084;5.412;2023-09-19T01:43:17;14.90;99.90
61912;DHT22;49973;52.084;5.412;2023-09-19T01:46:05;14.90;99.90
61912;DHT22;49973;52.084;5.412;2023-09-19T01:48:41;14.90;99.90
61912;DHT22;49973;52.084;5.412;2023-09-19T01:51:20;14.90;99.90
61912;DHT22;49973;52.084;5.412;2023-09-19T01:53:57;14.90;99.90
61912;DHT22;49973;52.084;5.412;2023-09-19T01:56:34;14.90;99.90
61912;DHT22;49973;52.084;5.412;2023-09-19T01:59:08;14.90;99.90
61912;DHT22;49973;52.084;5.412;2023-09-19T02:01:42;14.90;99.90
61912;DHT22;49973;52.084;5.412;2023-09-19T02:04:13;14.80;99.90
61912;DHT22;49973;52.084;5.412;2023-09-19T02:06:42;14.80;99.90
61912;DHT22;49973;52.084;5.412;2023-09-19T02:09:11;14.80;99.90
61912;DHT22;49973;52.084;5.412;2023-09-19T02:11:39;14.80;99.90
61912;DHT22;49973;52.084;5.412;2023-09-19T02:14:08;14.80;99.90
61912;DHT22;49973;52.084;5.412;2023-09-19T02:16:37;14.70;99.90
61912;DHT22;49973;52.084;5.412;2023-09-19T02:19:07;14.80;99.90
61912;DHT22;49973;52.084;5.412;2023-09-19T02:21:36;14.70;99.90
61912;DHT22;49973;52.084;5.412;2023-09-19T02:24:08;14.70;99.90
61912;DHT22;49973;52.084;5.412;2023-09-19T02:26:37;14.60;99.90
61912;DHT22;49973;52.084;5.412;2023-09-19T02:29:06;14.60;99.90
61912;DHT22;49973;52.084;5.412;2023-09-19T02:31:35;14.60;99.90
61912;DHT22;49973;52.084;5.412;2023-09-19T02:34:06;14.50;99.90
61912;DHT22;49973;52.084;5.412;2023-09-19T02:36:36;14.50;99.90
61912;DHT22;49973;52.084;5.412;2023-09-19T02:39:05;14.50;99.90
61912;DHT22;49973;52.084;5.412;2023-09-19T02:41:35;14.40;99.90
61912;DHT22;49973;52.084;5.412;2023-09-19T02:44:04;14.40;99.90
61912;DHT22;49973;52.084;5.412;2023-09-19T02:46:35;14.40;99.90
61912;DHT22;49973;52.084;5.412;2023-09-19T02:49:06;14.40;99.90
61912;DHT22;49973;52.084;5.412;2023-09-19T02:51:35;14.30;99.90
61912;DHT22;49973;52.084;5.412;2023-09-19T02:54:04;14.30;99.90
61912;DHT22;49973;52.084;5.412;2023-09-19T02:56:33;14.20;99.90
61912;DHT22;49973;52.084;5.412;2023-09-19T02:59:03;14.20;99.90
61912;DHT22;49973;52.084;5.412;2023-09-19T03:01:32;14.10;99.90
61912;DHT22;49973;52.084;5.412;2023-09-19T03:04:01;14.10;99.90
61912;DHT22;49973;52.084;5.412;2023-09-19T03:06:31;14.00;99.90
61912;DHT22;49973;52.084;5.412;2023-09-19T03:09:00;14.00;99.90
61912;DHT22;49973;52.084;5.412;2023-09-19T03:11:33;13.90;99.90
61912;DHT22;49973;52.084;5.412;2023-09-19T03:14:02;13.90;99.90
61912;DHT22;49973;52.084;5.412;2023-09-19T03:16:31;13.80;99.90
61912;DHT22;49973;52.084;5.412;2023-09-19T03:19:00;13.80;99.90
61912;DHT22;49973;52.084;5.412;2023-09-19T03:21:32;13.70;99.90
61912;DHT22;49973;52.084;5.412;2023-09-19T03:24:02;13.70;99.90
61912;DHT22;49973;52.084;5.412;2023-09-19T03:26:32;13.70;99.90
61912;DHT22;49973;52.084;5.412;2023-09-19T03:29:03;13.60;99.90
61912;DHT22;49973;52.084;5.412;2023-09-19T03:31:35;13.50;99.90
61912;DHT22;49973;52.084;5.412;2023-09-19T03:34:08;13.50;99.90
61912;DHT22;49973;52.084;5.412;2023-09-19T03:36:38;13.50;99.90
61912;DHT22;49973;52.084;5.412;2023-09-19T03:39:08;13.50;99.90
61912;DHT22;49973;52.084;5.412;2023-09-19T03:41:38;13.40;99.90
61912;DHT22;49973;52.084;5.412;2023-09-19T03:44:07;13.40;99.90
61912;DHT22;49973;52.084;5.412;2023-09-19T03:46:35;13.40;99.90
61912;DHT22;49973;52.084;5.412;2023-09-19T03:49:05;13.30;99.90
61912;DHT22;49973;52.084;5.412;2023-09-19T03:51:33;13.30;99.90
61912;DHT22;49973;52.084;5.412;2023-09-19T03:54:05;13.30;99.90
61912;DHT22;49973;52.084;5.412;2023-09-19T03:56:34;13.20;99.90
61912;DHT22;49973;52.084;5.412;2023-09-19T03:59:04;13.20;99.90
61912;DHT22;49973;52.084;5.412;2023-09-19T04:01:32;13.20;99.90
61912;DHT22;49973;52.084;5.412;2023-09-19T04:04:01;13.20;99.90
61912;DHT22;49973;52.084;5.412;2023-09-19T04:06:36;13.20;99.90
61912;DHT22;49973;52.084;5.412;2023-09-19T04:09:07;13.10;99.90
61912;DHT22;49973;52.084;5.412;2023-09-19T04:11:38;13.10;99.90
61912;DHT22;49973;52.084;5.412;2023-09-19T04:14:07;13.10;99.90
61912;DHT22;49973;52.084;5.412;2023-09-19T04:16:35;13.10;99.90
61912;DHT22;49973;52.084;5.412;2023-09-19T04:19:06;13.10;99.90
61912;DHT22;49973;52.084;5.412;2023-09-19T04:21:35;13.10;99.90
61912;DHT22;49973;52.084;5.412;2023-09-19T04:24:05;13.00;99.90
61912;DHT22;49973;52.084;5.412;2023-09-19T04:26:35;13.10;99.90
61912;DHT22;49973;52.084;5.412;2023-09-19T04:29:04;13.00;99.90
61912;DHT22;49973;52.084;5.412;2023-09-19T04:31:33;13.10;99.90
61912;DHT22;49973;52.084;5.412;2023-09-19T04:34:02;13.00;99.90
61912;DHT22;49973;52.084;5.412;2023-09-19T04:36:31;13.00;99.90
61912;DHT22;49973;52.084;5.412;2023-09-19T04:39:02;13.00;99.90
61912;DHT22;49973;52.084;5.412;2023-09-19T04:41:36;13.00;99.90
61912;DHT22;49973;52.084;5.412;2023-09-19T04:44:06;13.10;99.90
61912;DHT22;49973;52.084;5.412;2023-09-19T04:46:34;13.00;99.90
61912;DHT22;49973;52.084;5.412;2023-09-19T04:49:03;13.10;99.90
61912;DHT22;49973;52.084;5.412;2023-09-19T04:51:32;13.10;99.90
61912;DHT22;49973;52.084;5.412;2023-09-19T04:54:04;13.10;99.90
61912;DHT22;49973;52.084;5.412;2023-09-19T04:56:32;13.10;99.90
61912;DHT22;49973;52.084;5.412;2023-09-19T04:59:02;13.10;99.90
61912;DHT22;49973;52.084;5.412;2023-09-19T05:01:32;13.10;99.90
61912;DHT22;49973;52.084;5.412;2023-09-19T05:04:01;13.10;99.90
61912;DHT22;49973;52.084;5.412;2023-09-19T05:06:32;13.10;99.90
61912;DHT22;49973;52.084;5.412;2023-09-19T05:09:02;13.10;99.90
61912;DHT22;49973;52.084;5.412;2023-09-19T05:11:32;13.10;99.90
61912;DHT22;49973;52.084;5.412;2023-09-19T05:14:02;13.10;99.90
61912;DHT22;49973;52.084;5.412;2023-09-19T05:16:31;13.10;99.90
61912;DHT22;49973;52.084;5.412;2023-09-19T05:19:00;13.10;99.90
61912;DHT22;49973;52.084;5.412;2023-09-19T05:21:30;13.10;99.90
61912;DHT22;49973;52.084;5.412;2023-09-19T05:24:00;13.10;99.90
61912;DHT22;49973;52.084;5.412;2023-09-19T05:26:29;13.10;99.90
61912;DHT22;49973;52.084;5.412;2023-09-19T05:28:58;13.10;99.90
61912;DHT22;49973;52.084;5.412;2023-09-19T05:31:27;13.10;99.90
61912;DHT22;49973;52.084;5.412;2023-09-19T05:33:56;13.10;99.90
61912;DHT22;49973;52.084;5.412;2023-09-19T05:36:28;13.10;99.90
61912;DHT22;49973;52.084;5.412;2023-09-19T05:38:58;13.20;99.90
61912;DHT22;49973;52.084;5.412;2023-09-19T05:41:27;13.10;99.90
61912;DHT22;49973;52.084;5.412;2023-09-19T05:43:55;13.20;99.90
61912;DHT22;49973;52.084;5.412;2023-09-19T05:46:31;13.20;99.90
61912;DHT22;49973;52.084;5.412;2023-09-19T05:49:00;13.40;99.90
61912;DHT22;49973;52.084;5.412;2023-09-19T05:51:29;13.30;99.90
61912;DHT22;49973;52.084;5.412;2023-09-19T05:53:58;13.30;99.90
61912;DHT22;49973;52.084;5.412;2023-09-19T05:56:26;13.30;99.90
61912;DHT22;49973;52.084;5.412;2023-09-19T05:58:55;13.30;99.90
61912;DHT22;49973;52.084;5.412;2023-09-19T06:01:24;13.40;99.90
61912;DHT22;49973;52.084;5.412;2023-09-19T06:03:54;13.40;99.90
61912;DHT22;49973;52.084;5.412;2023-09-19T06:06:23;13.40;99.90
61912;DHT22;49973;52.084;5.412;2023-09-19T06:08:52;13.50;99.90
61912;DHT22;49973;52.084;5.412;2023-09-19T06:11:20;13.50;99.90
61912;DHT22;49973;52.084;5.412;2023-09-19T06:13:52;13.50;99.90
61912;DHT22;49973;52.084;5.412;2023-09-19T06:16:21;13.60;99.90
61912;DHT22;49973;52.084;5.412;2023-09-19T06:18:49;13.60;99.90
61912;DHT22;49973;52.084;5.412;2023-09-19T06:21:21;13.60;99.90
61912;DHT22;49973;52.084;5.412;2023-09-19T06:23:50;13.70;99.90
61912;DHT22;49973;52.084;5.412;2023-09-19T06:26:19;13.80;99.90
61912;DHT22;49973;52.084;5.412;2023-09-19T06:28:48;13.80;99.90
61912;DHT22;49973;52.084;5.412;2023-09-19T06:31:16;13.80;99.90
61912;DHT22;49973;52.084;5.412;2023-09-19T06:33:45;13.80;99.90
61912;DHT22;49973;52.084;5.412;2023-09-19T06:36:14;13.80;99.90
61912;DHT22;49973;52.084;5.412;2023-09-19T06:38:44;13.90;99.90
61912;DHT22;49973;52.084;5.412;2023-09-19T06:41:14;14.00;99.90
61912;DHT22;49973;52.084;5.412;2023-09-19T06:43:45;14.10;99.90
61912;DHT22;49973;52.084;5.412;2023-09-19T06:46:13;14.20;99.90
61912;DHT22;49973;52.084;5.412;2023-09-19T06:48:43;14.20;99.90
61912;DHT22;49973;52.084;5.412;2023-09-19T06:51:12;14.40;99.90
61912;DHT22;49973;52.084;5.412;2023-09-19T06:53:44;14.30;99.90
61912;DHT22;49973;52.084;5.412;2023-09-19T06:56:14;14.50;99.90
61912;DHT22;49973;52.084;5.412;2023-09-19T06:58:43;14.50;99.90
61912;DHT22;49973;52.084;5.412;2023-09-19T07:01:12;14.60;99.90
61912;DHT22;49973;52.084;5.412;2023-09-19T07:03:42;14.70;99.90
61912;DHT22;49973;52.084;5.412;2023-09-19T07:06:13;14.80;99.90
61912;DHT22;49973;52.084;5.412;2023-09-19T07:08:44;14.90;99.90
61912;DHT22;49973;52.084;5.412;2023-09-19T07:11:12;14.90;99.90
61912;DHT22;49973;52.084;5.412;2023-09-19T07:13:41;15.00;99.90
61912;DHT22;49973;52.084;5.412;2023-09-19T07:16:11;15.10;99.90
61912;DHT22;49973;52.084;5.412;2023-09-19T07:18:55;15.20;99.90
61912;DHT22;49973;52.084;5.412;2023-09-19T07:21:24;15.40;99.90
61912;DHT22;49973;52.084;5.412;2023-09-19T07:23:54;15.40;99.90
61912;DHT22;49973;52.084;5.412;2023-09-19T07:26:23;15.50;99.90
61912;DHT22;49973;52.084;5.412;2023-09-19T07:28:52;15.70;99.90
61912;DHT22;49973;52.084;5.412;2023-09-19T07:31:20;15.80;99.90
61912;DHT22;49973;52.084;5.412;2023-09-19T07:33:50;15.90;99.90
61912;DHT22;49973;52.084;5.412;2023-09-19T07:36:19;16.20;99.90
61912;DHT22;49973;52.084;5.412;2023-09-19T07:38:47;16.10;99.90
61912;DHT22;49973;52.084;5.412;2023-09-19T07:41:17;16.20;99.90
61912;DHT22;49973;52.084;5.412;2023-09-19T07:43:46;16.20;99.90
61912;DHT22;49973;52.084;5.412;2023-09-19T07:46:14;16.50;99.90
61912;DHT22;49973;52.084;5.412;2023-09-19T07:48:43;16.70;99.90
61912;DHT22;49973;52.084;5.412;2023-09-19T07:51:16;16.80;99.90
61912;DHT22;49973;52.084;5.412;2023-09-19T07:53:45;17.10;99.90
61912;DHT22;49973;52.084;5.412;2023-09-19T07:56:16;17.30;99.90
61912;DHT22;49973;52.084;5.412;2023-09-19T07:58:48;17.60;99.90
61912;DHT22;49973;52.084;5.412;2023-09-19T08:01:16;17.90;99.90
61912;DHT22;49973;52.084;5.412;2023-09-19T08:03:45;18.10;99.90
61912;DHT22;49973;52.084;5.412;2023-09-19T08:06:15;18.30;99.90
61912;DHT22;49973;52.084;5.412;2023-09-19T08:08:44;18.60;99.90
61912;DHT22;49973;52.084;5.412;2023-09-19T08:11:13;18.80;99.90
61912;DHT22;49973;52.084;5.412;2023-09-19T08:13:50;19.10;99.90
61912;DHT22;49973;52.084;5.412;2023-09-19T08:16:23;19.30;99.90
61912;DHT22;49973;52.084;5.412;2023-09-19T08:18:56;19.60;99.90
61912;DHT22;49973;52.084;5.412;2023-09-19T08:21:31;19.80;99.90
61912;DHT22;49973;52.084;5.412;2023-09-19T08:24:01;19.90;99.90
61912;DHT22;49973;52.084;5.412;2023-09-19T08:26:34;20.00;99.90
61912;DHT22;49973;52.084;5.412;2023-09-19T08:29:09;19.90;99.90
61912;DHT22;49973;52.084;5.412;2023-09-19T08:31:40;19.90;99.90
61912;DHT22;49973;52.084;5.412;2023-09-19T08:34:30;19.90;99.90
61912;DHT22;49973;52.084;5.412;2023-09-19T08:37:05;19.90;99.90
61912;DHT22;49973;52.084;5.412;2023-09-19T08:39:53;19.80;99.90
61912;DHT22;49973;52.084;5.412;2023-09-19T08:42:27;19.70;99.90
61912;DHT22;49973;52.084;5.412;2023-09-19T08:44:59;19.90;99.90
61912;DHT22;49973;52.084;5.412;2023-09-19T08:47:34;19.90;99.90
61912;DHT22;49973;52.084;5.412;2023-09-19T08:50:13;19.90;99.90
61912;DHT22;49973;52.084;5.412;2023-09-19T08:52:47;19.80;99.90
61912;DHT22;49973;52.084;5.412;2023-09-19T08:55:19;19.80;99.90
61912;DHT22;49973;52.084;5.412;2023-09-19T08:57:52;19.90;99.90
61912;DHT22;49973;52.084;5.412;2023-09-19T09:00:53;19.90;99.90
61912;DHT22;49973;52.084;5.412;2023-09-19T09:03:32;19.90;99.90
61912;DHT22;49973;52.084;5.412;2023-09-19T09:06:02;20.00;99.90
61912;DHT22;49973;52.084;5.412;2023-09-19T09:11:23;20.00;99.90
61912;DHT22;49973;52.084;5.412;2023-09-19T09:13:53;19.90;99.90
61912;DHT22;49973;52.084;5.412;2023-09-19T09:16:24;19.90;99.90
61912;DHT22;49973;52.084;5.412;2023-09-19T09:18:54;19.80;99.90
61912;DHT22;49973;52.084;5.412;2023-09-19T09:21:25;19.90;99.90
61912;DHT22;49973;52.084;5.412;2023-09-19T09:23:57;20.00;99.90
61912;DHT22;49973;52.084;5.412;2023-09-19T09:26:41;19.90;99.90
61912;DHT22;49973;52.084;5.412;2023-09-19T09:29:11;19.80;99.90
61912;DHT22;49973;52.084;5.412;2023-09-19T09:31:48;19.70;99.90
61912;DHT22;49973;52.084;5.412;2023-09-19T09:34:17;19.70;99.90
61912;DHT22;49973;52.084;5.412;2023-09-19T09:36:49;19.90;99.90
61912;DHT22;49973;52.084;5.412;2023-09-19T09:39:30;20.10;99.90
61912;DHT22;49973;52.084;5.412;2023-09-19T09:42:00;20.50;99.90
61912;DHT22;49973;52.084;5.412;2023-09-19T09:44:34;20.70;99.90
61912;DHT22;49973;52.084;5.412;2023-09-19T09:47:04;21.00;99.90
61912;DHT22;49973;52.084;5.412;2023-09-19T09:49:49;21.30;99.90
61912;DHT22;49973;52.084;5.412;2023-09-19T09:52:45;21.40;99.90
61912;DHT22;49973;52.084;5.412;2023-09-19T09:55:13;21.50;99.90
61912;DHT22;49973;52.084;5.412;2023-09-19T09:57:42;21.60;99.90
61912;DHT22;49973;52.084;5.412;2023-09-19T10:00:12;21.60;99.90
61912;DHT22;49973;52.084;5.412;2023-09-19T10:02:49;21.70;99.90
61912;DHT22;49973;52.084;5.412;2023-09-19T10:05:20;21.70;99.90
61912;DHT22;49973;52.084;5.412;2023-09-19T10:07:56;21.60;99.90
61912;DHT22;49973;52.084;5.412;2023-09-19T10:10:40;21.50;99.90
61912;DHT22;49973;52.084;5.412;2023-09-19T10:13:22;21.50;99.90
61912;DHT22;49973;52.084;5.412;2023-09-19T10:15:57;21.30;99.90
61912;DHT22;49973;52.084;5.412;2023-09-19T10:18:31;21.10;99.90
61912;DHT22;49973;52.084;5.412;2023-09-19T10:21:04;20.70;99.90
61912;DHT22;49973;52.084;5.412;2023-09-19T10:23:35;20.20;99.90
61912;DHT22;49973;52.084;5.412;2023-09-19T10:26:05;20.20;99.90
61912;DHT22;49973;52.084;5.412;2023-09-19T10:28:36;19.90;99.90
61912;DHT22;49973;52.084;5.412;2023-09-19T10:31:06;19.70;99.90
61912;DHT22;49973;52.084;5.412;2023-09-19T10:33:38;19.60;99.90
61912;DHT22;49973;52.084;5.412;2023-09-19T10:36:09;19.50;99.90
61912;DHT22;49973;52.084;5.412;2023-09-19T10:38:43;19.50;99.90
61912;DHT22;49973;52.084;5.412;2023-09-19T10:41:14;19.70;99.90
61912;DHT22;49973;52.084;5.412;2023-09-19T10:43:46;19.90;99.90
61912;DHT22;49973;52.084;5.412;2023-09-19T10:46:16;20.10;99.90
61912;DHT22;49973;52.084;5.412;2023-09-19T10:48:46;20.40;99.90
61912;DHT22;49973;52.084;5.412;2023-09-19T10:51:21;20.60;99.90
61912;DHT22;49973;52.084;5.412;2023-09-19T10:53:55;20.70;99.90
61912;DHT22;49973;52.084;5.412;2023-09-19T10:56:29;20.70;99.90
61912;DHT22;49973;52.084;5.412;2023-09-19T10:59:06;20.60;99.90
61912;DHT22;49973;52.084;5.412;2023-09-19T11:01:42;20.50;99.90
61912;DHT22;49973;52.084;5.412;2023-09-19T11:04:23;20.40;99.90
61912;DHT22;49973;52.084;5.412;2023-09-19T11:07:03;20.40;99.90
61912;DHT22;49973;52.084;5.412;2023-09-19T11:09:49;20.40;99.90
61912;DHT22;49973;52.084;5.412;2023-09-19T11:12:54;20.50;99.90
61912;DHT22;49973;52.084;5.412;2023-09-19T11:18:51;20.80;99.90
61912;DHT22;49973;52.084;5.412;2023-09-19T11:21:42;20.80;99.90
61912;DHT22;49973;52.084;5.412;2023-09-19T11:24:31;20.70;99.90
61912;DHT22;49973;52.084;5.412;2023-09-19T11:27:14;20.60;99.90
61912;DHT22;49973;52.084;5.412;2023-09-19T11:29:45;20.60;99.90
61912;DHT22;49973;52.084;5.412;2023-09-19T11:32:14;20.70;99.90
61912;DHT22;49973;52.084;5.412;2023-09-19T11:34:48;20.90;99.90
61912;DHT22;49973;52.084;5.412;2023-09-19T11:40:56;21.10;99.90
61912;DHT22;49973;52.084;5.412;2023-09-19T11:43:38;20.90;99.90
61912;DHT22;49973;52.084;5.412;2023-09-19T11:46:08;20.80;99.90
61912;DHT22;49973;52.084;5.412;2023-09-19T11:48:39;20.60;99.90
61912;DHT22;49973;52.084;5.412;2023-09-19T11:51:17;20.50;99.90
61912;DHT22;49973;52.084;5.412;2023-09-19T11:53:55;20.50;99.90
61912;DHT22;49973;52.084;5.412;2023-09-19T11:56:25;20.60;99.90
61912;DHT22;49973;52.084;5.412;2023-09-19T11:58:56;20.60;99.90
61912;DHT22;49973;52.084;5.412;2023-09-19T12:01:28;20.60;99.90
61912;DHT22;49973;52.084;5.412;2023-09-19T12:04:00;20.60;99.90
61912;DHT22;49973;52.084;5.412;2023-09-19T12:06:32;20.60;99.90
61912;DHT22;49973;52.084;5.412;2023-09-19T12:09:00;20.60;99.90
61912;DHT22;49973;52.084;5.412;2023-09-19T12:11:41;20.60;99.90
61912;DHT22;49973;52.084;5.412;2023-09-19T12:14:13;20.40;99.90
61912;DHT22;49973;52.084;5.412;2023-09-19T12:16:53;20.30;99.90
61912;DHT22;49973;52.084;5.412;2023-09-19T12:19:23;20.20;99.90
61912;DHT22;49973;52.084;5.412;2023-09-19T12:21:56;20.20;99.90
61912;DHT22;49973;52.084;5.412;2023-09-19T12:24:27;20.10;99.90
61912;DHT22;49973;52.084;5.412;2023-09-19T12:27:04;20.10;99.90
61912;DHT22;49973;52.084;5.412;2023-09-19T12:29:43;20.10;99.90
61912;DHT22;49973;52.084;5.412;2023-09-19T12:32:12;20.10;99.90
61912;DHT22;49973;52.084;5.412;2023-09-19T12:34:51;20.00;99.90
61912;DHT22;49973;52.084;5.412;2023-09-19T12:37:22;20.00;99.90
61912;DHT22;49973;52.084;5.412;2023-09-19T12:40:04;19.90;99.90
61912;DHT22;49973;52.084;5.412;2023-09-19T12:42:46;19.90;99.90
61912;DHT22;49973;52.084;5.412;2023-09-19T12:45:16;19.90;99.90
61912;DHT22;49973;52.084;5.412;2023-09-19T12:48:17;19.90;99.90
61912;DHT22;49973;52.084;5.412;2023-09-19T12:51:04;19.80;99.90
61912;DHT22;49973;52.084;5.412;2023-09-19T12:53:36;19.70;99.90
61912;DHT22;49973;52.084;5.412;2023-09-19T12:56:09;19.60;99.90
61912;DHT22;49973;52.084;5.412;2023-09-19T12:58:52;19.50;99.90
61912;DHT22;49973;52.084;5.412;2023-09-19T13:01:22;19.40;99.90
61912;DHT22;49973;52.084;5.412;2023-09-19T13:04:10;19.40;99.90
61912;DHT22;49973;52.084;5.412;2023-09-19T13:06:39;19.40;99.90
61912;DHT22;49973;52.084;5.412;2023-09-19T13:09:11;19.40;99.90
61912;DHT22;49973;52.084;5.412;2023-09-19T13:11:42;19.50;99.90
61912;DHT22;49973;52.084;5.412;2023-09-19T13:14:18;19.60;99.90
61912;DHT22;49973;52.084;5.412;2023-09-19T13:16:57;19.60;99.90
61912;DHT22;49973;52.084;5.412;2023-09-19T13:19:36;19.60;99.90
61912;DHT22;49973;52.084;5.412;2023-09-19T13:22:37;19.70;99.90
61912;DHT22;49973;52.084;5.412;2023-09-19T13:25:08;19.60;99.90
61912;DHT22;49973;52.084;5.412;2023-09-19T13:27:42;19.60;99.90
61912;DHT22;49973;52.084;5.412;2023-09-19T13:30:13;19.50;99.90
61912;DHT22;49973;52.084;5.412;2023-09-19T13:32:42;19.40;99.90
61912;DHT22;49973;52.084;5.412;2023-09-19T13:35:11;19.40;99.90
61912;DHT22;49973;52.084;5.412;2023-09-19T13:37:41;19.40;99.90
61912;DHT22;49973;52.084;5.412;2023-09-19T13:40:12;19.40;99.90
61912;DHT22;49973;52.084;5.412;2023-09-19T13:42:42;19.50;99.90
61912;DHT22;49973;52.084;5.412;2023-09-19T13:45:12;19.50;99.90
61912;DHT22;49973;52.084;5.412;2023-09-19T13:47:44;19.60;99.90
61912;DHT22;49973;52.084;5.412;2023-09-19T13:50:13;19.70;99.90
61912;DHT22;49973;52.084;5.412;2023-09-19T13:52:42;19.80;99.90
61912;DHT22;49973;52.084;5.412;2023-09-19T13:55:10;19.90;99.90
61912;DHT22;49973;52.084;5.412;2023-09-19T13:57:42;19.90;99.90
61912;DHT22;49973;52.084;5.412;2023-09-19T14:00:13;20.00;99.90
61912;DHT22;49973;52.084;5.412;2023-09-19T14:02:43;20.00;99.90
61912;DHT22;49973;52.084;5.412;2023-09-19T14:05:13;20.00;99.90
61912;DHT22;49973;52.084;5.412;2023-09-19T14:07:44;20.00;99.90
61912;DHT22;49973;52.084;5.412;2023-09-19T14:10:13;19.90;99.90
61912;DHT22;49973;52.084;5.412;2023-09-19T14:12:44;19.90;99.90
61912;DHT22;49973;52.084;5.412;2023-09-19T14:15:14;19.90;99.90
61912;DHT22;49973;52.084;5.412;2023-09-19T14:17:43;19.90;99.90
61912;DHT22;49973;52.084;5.412;2023-09-19T14:20:13;19.80;99.90
61912;DHT22;49973;52.084;5.412;2023-09-19T14:22:43;19.80;99.90
61912;DHT22;49973;52.084;5.412;2023-09-19T14:25:11;19.70;99.90
61912;DHT22;49973;52.084;5.412;2023-09-19T14:27:40;19.70;99.90
61912;DHT22;49973;52.084;5.412;2023-09-19T14:30:10;19.70;99.90
61912;DHT22;49973;52.084;5.412;2023-09-19T14:32:40;19.60;99.90
61912;DHT22;49973;52.084;5.412;2023-09-19T14:35:09;19.50;99.90
61912;DHT22;49973;52.084;5.412;2023-09-19T14:37:38;19.60;99.90
61912;DHT22;49973;52.084;5.412;2023-09-19T14:40:08;19.50;99.90
61912;DHT22;49973;52.084;5.412;2023-09-19T14:42:39;19.50;99.90
61912;DHT22;49973;52.084;5.412;2023-09-19T14:45:09;19.50;99.90
61912;DHT22;49973;52.084;5.412;2023-09-19T14:47:40;19.50;99.90
61912;DHT22;49973;52.084;5.412;2023-09-19T14:50:10;19.50;99.90
61912;DHT22;49973;52.084;5.412;2023-09-19T14:52:39;19.50;99.90
61912;DHT22;49973;52.084;5.412;2023-09-19T14:55:08;19.50;99.90
61912;DHT22;49973;52.084;5.412;2023-09-19T14:57:42;19.40;99.90
61912;DHT22;49973;52.084;5.412;2023-09-19T15:00:13;19.40;99.90
61912;DHT22;49973;52.084;5.412;2023-09-19T15:02:45;19.30;99.90
61912;DHT22;49973;52.084;5.412;2023-09-19T15:05:16;19.30;99.90
61912;DHT22;49973;52.084;5.412;2023-09-19T15:07:47;19.30;99.90
61912;DHT22;49973;52.084;5.412;2023-09-19T15:10:16;19.30;99.90
61912;DHT22;49973;52.084;5.412;2023-09-19T15:12:46;19.20;99.90
61912;DHT22;49973;52.084;5.412;2023-09-19T15:15:14;19.20;99.90
61912;DHT22;49973;52.084;5.412;2023-09-19T15:17:45;19.20;99.90
61912;DHT22;49973;52.084;5.412;2023-09-19T15:20:14;19.10;99.90
61912;DHT22;49973;52.084;5.412;2023-09-19T15:22:45;19.10;99.90
61912;DHT22;49973;52.084;5.412;2023-09-19T15:25:14;19.10;99.90
61912;DHT22;49973;52.084;5.412;2023-09-19T15:27:43;19.10;99.90
61912;DHT22;49973;52.084;5.412;2023-09-19T15:30:13;19.10;99.90
61912;DHT22;49973;52.084;5.412;2023-09-19T15:32:43;19.10;99.90
61912;DHT22;49973;52.084;5.412;2023-09-19T15:35:13;19.10;99.90
61912;DHT22;49973;52.084;5.412;2023-09-19T15:37:44;19.10;99.90
61912;DHT22;49973;52.084;5.412;2023-09-19T15:44:20;19.00;99.90
61912;DHT22;49973;52.084;5.412;2023-09-19T15:46:51;18.90;99.90
61912;DHT22;49973;52.084;5.412;2023-09-19T15:49:20;19.00;99.90
61912;DHT22;49973;52.084;5.412;2023-09-19T15:51:51;19.00;99.90
61912;DHT22;49973;52.084;5.412;2023-09-19T15:54:21;19.00;99.90
61912;DHT22;49973;52.084;5.412;2023-09-19T15:56:50;18.90;99.90
61912;DHT22;49973;52.084;5.412;2023-09-19T16:03:31;18.90;99.90
61912;DHT22;49973;52.084;5.412;2023-09-19T16:06:00;18.90;99.90
61912;DHT22;49973;52.084;5.412;2023-09-19T16:08:30;18.90;99.90
61912;DHT22;49973;52.084;5.412;2023-09-19T16:11:01;18.80;99.90
61912;DHT22;49973;52.084;5.412;2023-09-19T16:13:30;18.90;99.90
61912;DHT22;49973;52.084;5.412;2023-09-19T16:15:59;18.90;99.90
61912;DHT22;49973;52.084;5.412;2023-09-19T16:18:27;18.90;99.90
61912;DHT22;49973;52.084;5.412;2023-09-19T16:21:01;18.90;99.90